sensor_id;sensor_type;location;lat;lon;timestamp;P1;durP1;ratioP1;P2;durP2;ratioP2
15848;SDS011;8024;48.708;9.394;2023-04-30T00:02:24;4.83;;;3.40;;
15848;SDS011;8024;48.708;9.394;2023-04-30T00:04:52;3.93;;;3.53;;
15848;SDS011;8024;48.708;9.394;2023-04-30T00:07:19;3.60;;;3.30;;
15848;SDS011;8024;48.708;9.394;2023-04-30T00:09:46;4.10;;;3.73;;
15848;SDS011;8024;48.708;9.394;2023-04-30T00:12:15;3.97;;;3.37;;
15848;SDS011;8024;48.708;9.394;2023-04-30T00:14:42;4.27;;;3.87;;
15848;SDS011;8024;48.708;9.394;2023-04-30T00:17:09;4.80;;;4.40;;
15848;SDS011;8024;48.708;9.394;2023-04-30T00:19:37;4.17;;;3.77;;
15848;SDS011;8024;48.708;9.394;2023-04-30T00:22:05;3.50;;;3.20;;
15848;SDS011;8024;48.708;9.394;2023-04-30T00:24:32;3.83;;;3.53;;
15848;SDS011;8024;48.708;9.394;2023-04-30T00:26:59;4.57;;;4.17;;
15848;SDS011;8024;48.708;9.394;2023-04-30T00:29:26;3.70;;;3.40;;
15848;SDS011;8024;48.708;9.394;2023-04-30T00:31:53;4.33;;;3.93;;
15848;SDS011;8024;48.708;9.394;2023-04-30T00:34:20;4.07;;;3.67;;
15848;SDS011;8024;48.708;9.394;2023-04-30T00:36:49;4.43;;;3.73;;
15848;SDS011;8024;48.708;9.394;2023-04-30T00:39:16;3.93;;;3.60;;
15848;SDS011;8024;48.708;9.394;2023-04-30T00:41:43;4.20;;;3.53;;
15848;SDS011;8024;48.708;9.394;2023-04-30T00:44:11;4.33;;;3.93;;
15848;SDS011;8024;48.708;9.394;2023-04-30T00:46:38;3.90;;;3.60;;
15848;SDS011;8024;48.708;9.394;2023-04-30T00:49:05;4.40;;;4.00;;
15848;SDS011;8024;48.708;9.394;2023-04-30T00:51:33;4.53;;;4.13;;
15848;SDS011;8024;48.708;9.394;2023-04-30T00:54:02;4.03;;;3.63;;
15848;SDS011;8024;48.708;9.394;2023-04-30T00:56:30;4.53;;;3.63;;
15848;SDS011;8024;48.708;9.394;2023-04-30T00:58:57;4.40;;;4.00;;
15848;SDS011;8024;48.708;9.394;2023-04-30T01:01:25;4.27;;;3.67;;
15848;SDS011;8024;48.708;9.394;2023-04-30T01:03:53;4.57;;;4.17;;
15848;SDS011;8024;48.708;9.394;2023-04-30T01:06:21;4.10;;;3.80;;
15848;SDS011;8024;48.708;9.394;2023-04-30T01:08:48;4.17;;;3.70;;
15848;SDS011;8024;48.708;9.394;2023-04-30T01:11:20;4.30;;;3.90;;
15848;SDS011;8024;48.708;9.394;2023-04-30T01:13:54;6.57;;;4.80;;
15848;SDS011;8024;48.708;9.394;2023-04-30T01:16:29;4.37;;;3.97;;
15848;SDS011;8024;48.708;9.394;2023-04-30T01:19:01;4.57;;;3.70;;
15848;SDS011;8024;48.708;9.394;2023-04-30T01:21:31;5.23;;;3.50;;
15848;SDS011;8024;48.708;9.394;2023-04-30T01:24:05;3.83;;;3.53;;
15848;SDS011;8024;48.708;9.394;2023-04-30T01:27:05;4.93;;;4.27;;
15848;SDS011;8024;48.708;9.394;2023-04-30T01:29:41;3.77;;;3.37;;
15848;SDS011;8024;48.708;9.394;2023-04-30T01:32:09;4.70;;;4.30;;
15848;SDS011;8024;48.708;9.394;2023-04-30T01:34:36;5.43;;;4.50;;
15848;SDS011;8024;48.708;9.394;2023-04-30T01:37:06;4.40;;;4.00;;
15848;SDS011;8024;48.708;9.394;2023-04-30T01:39:47;5.30;;;4.30;;
15848;SDS011;8024;48.708;9.394;2023-04-30T01:42:25;5.07;;;4.57;;
15848;SDS011;8024;48.708;9.394;2023-04-30T01:45:08;6.00;;;4.83;;
15848;SDS011;8024;48.708;9.394;2023-04-30T01:47:45;5.40;;;4.67;;
15848;SDS011;8024;48.708;9.394;2023-04-30T01:50:19;5.13;;;4.23;;
15848;SDS011;8024;48.708;9.394;2023-04-30T01:52:55;5.27;;;4.57;;
15848;SDS011;8024;48.708;9.394;2023-04-30T01:55:26;5.30;;;3.97;;
15848;SDS011;8024;48.708;9.394;2023-04-30T01:57:59;5.10;;;4.60;;
15848;SDS011;8024;48.708;9.394;2023-04-30T02:00:29;5.27;;;4.70;;
15848;SDS011;8024;48.708;9.394;2023-04-30T02:02:56;5.33;;;4.77;;
15848;SDS011;8024;48.708;9.394;2023-04-30T02:05:24;6.77;;;5.83;;
15848;SDS011;8024;48.708;9.394;2023-04-30T02:07:51;5.97;;;5.37;;
15848;SDS011;8024;48.708;9.394;2023-04-30T02:10:21;5.00;;;4.53;;
15848;SDS011;8024;48.708;9.394;2023-04-30T02:12:49;6.23;;;5.37;;
15848;SDS011;8024;48.708;9.394;2023-04-30T02:15:16;6.00;;;4.87;;
15848;SDS011;8024;48.708;9.394;2023-04-30T02:17:44;5.93;;;4.90;;
15848;SDS011;8024;48.708;9.394;2023-04-30T02:20:12;5.83;;;5.30;;
15848;SDS011;8024;48.708;9.394;2023-04-30T02:22:39;6.50;;;5.63;;
15848;SDS011;8024;48.708;9.394;2023-04-30T02:25:06;5.87;;;5.27;;
15848;SDS011;8024;48.708;9.394;2023-04-30T02:27:36;6.10;;;5.50;;
15848;SDS011;8024;48.708;9.394;2023-04-30T02:30:04;6.63;;;5.90;;
15848;SDS011;8024;48.708;9.394;2023-04-30T02:32:32;6.93;;;5.70;;
15848;SDS011;8024;48.708;9.394;2023-04-30T02:35:00;6.70;;;6.07;;
15848;SDS011;8024;48.708;9.394;2023-04-30T02:37:28;6.73;;;6.03;;
15848;SDS011;8024;48.708;9.394;2023-04-30T02:39:55;8.20;;;6.27;;
15848;SDS011;8024;48.708;9.394;2023-04-30T02:42:23;8.27;;;6.03;;
15848;SDS011;8024;48.708;9.394;2023-04-30T02:44:50;6.20;;;5.50;;
15848;SDS011;8024;48.708;9.394;2023-04-30T02:47:17;6.13;;;5.53;;
15848;SDS011;8024;48.708;9.394;2023-04-30T02:49:44;6.97;;;5.87;;
15848;SDS011;8024;48.708;9.394;2023-04-30T02:52:13;6.43;;;5.83;;
15848;SDS011;8024;48.708;9.394;2023-04-30T02:54:40;5.50;;;4.97;;
15848;SDS011;8024;48.708;9.394;2023-04-30T02:57:07;6.20;;;5.70;;
15848;SDS011;8024;48.708;9.394;2023-04-30T02:59:34;5.20;;;4.80;;
15848;SDS011;8024;48.708;9.394;2023-04-30T03:02:02;7.20;;;5.60;;
15848;SDS011;8024;48.708;9.394;2023-04-30T03:04:29;5.73;;;5.00;;
15848;SDS011;8024;48.708;9.394;2023-04-30T03:06:57;6.63;;;5.37;;
15848;SDS011;8024;48.708;9.394;2023-04-30T03:09:25;5.83;;;5.33;;
15848;SDS011;8024;48.708;9.394;2023-04-30T03:11:53;6.33;;;5.33;;
15848;SDS011;8024;48.708;9.394;2023-04-30T03:14:20;6.37;;;5.67;;
15848;SDS011;8024;48.708;9.394;2023-04-30T03:16:47;9.03;;;6.20;;
15848;SDS011;8024;48.708;9.394;2023-04-30T03:19:14;6.60;;;6.00;;
15848;SDS011;8024;48.708;9.394;2023-04-30T03:21:46;7.67;;;6.83;;
15848;SDS011;8024;48.708;9.394;2023-04-30T03:24:13;7.30;;;6.53;;
15848;SDS011;8024;48.708;9.394;2023-04-30T03:26:41;7.03;;;6.20;;
15848;SDS011;8024;48.708;9.394;2023-04-30T03:29:08;8.93;;;6.70;;
15848;SDS011;8024;48.708;9.394;2023-04-30T03:31:35;7.30;;;6.43;;
15848;SDS011;8024;48.708;9.394;2023-04-30T03:34:03;8.67;;;7.10;;
15848;SDS011;8024;48.708;9.394;2023-04-30T03:36:30;9.20;;;7.17;;
15848;SDS011;8024;48.708;9.394;2023-04-30T03:38:57;8.47;;;7.57;;
15848;SDS011;8024;48.708;9.394;2023-04-30T03:41:24;7.87;;;7.17;;
15848;SDS011;8024;48.708;9.394;2023-04-30T03:43:53;7.73;;;6.87;;
15848;SDS011;8024;48.708;9.394;2023-04-30T03:46:20;7.67;;;6.80;;
15848;SDS011;8024;48.708;9.394;2023-04-30T03:48:47;9.30;;;7.20;;
15848;SDS011;8024;48.708;9.394;2023-04-30T03:51:20;7.67;;;6.97;;
15848;SDS011;8024;48.708;9.394;2023-04-30T03:53:47;8.63;;;6.20;;
15848;SDS011;8024;48.708;9.394;2023-04-30T03:56:14;8.30;;;7.43;;
15848;SDS011;8024;48.708;9.394;2023-04-30T03:58:41;8.60;;;7.20;;
15848;SDS011;8024;48.708;9.394;2023-04-30T04:01:10;8.00;;;7.23;;
15848;SDS011;8024;48.708;9.394;2023-04-30T04:03:37;8.63;;;7.40;;
15848;SDS011;8024;48.708;9.394;2023-04-30T04:06:04;8.73;;;7.53;;
15848;SDS011;8024;48.708;9.394;2023-04-30T04:08:32;8.67;;;7.13;;
15848;SDS011;8024;48.708;9.394;2023-04-30T04:11:00;7.93;;;7.23;;
15848;SDS011;8024;48.708;9.394;2023-04-30T04:13:27;9.17;;;7.37;;
15848;SDS011;8024;48.708;9.394;2023-04-30T04:15:54;8.23;;;7.20;;
15848;SDS011;8024;48.708;9.394;2023-04-30T04:18:23;8.43;;;7.50;;
15848;SDS011;8024;48.708;9.394;2023-04-30T04:20:50;8.03;;;7.00;;
15848;SDS011;8024;48.708;9.394;2023-04-30T04:23:17;9.00;;;7.23;;
15848;SDS011;8024;48.708;9.394;2023-04-30T04:25:44;7.87;;;7.07;;
15848;SDS011;8024;48.708;9.394;2023-04-30T04:28:13;9.07;;;7.63;;
15848;SDS011;8024;48.708;9.394;2023-04-30T04:30:40;7.63;;;6.60;;
15848;SDS011;8024;48.708;9.394;2023-04-30T04:33:08;9.03;;;8.13;;
15848;SDS011;8024;48.708;9.394;2023-04-30T04:35:37;8.77;;;7.80;;
15848;SDS011;8024;48.708;9.394;2023-04-30T04:38:04;8.97;;;7.83;;
15848;SDS011;8024;48.708;9.394;2023-04-30T04:40:32;8.67;;;7.77;;
15848;SDS011;8024;48.708;9.394;2023-04-30T04:43:00;8.90;;;8.07;;
15848;SDS011;8024;48.708;9.394;2023-04-30T04:45:27;9.33;;;8.20;;
15848;SDS011;8024;48.708;9.394;2023-04-30T04:47:55;9.23;;;8.40;;
15848;SDS011;8024;48.708;9.394;2023-04-30T04:50:22;10.07;;;9.00;;
15848;SDS011;8024;48.708;9.394;2023-04-30T04:52:51;9.47;;;8.57;;
15848;SDS011;8024;48.708;9.394;2023-04-30T04:55:18;9.20;;;7.50;;
15848;SDS011;8024;48.708;9.394;2023-04-30T04:57:45;11.17;;;8.37;;
15848;SDS011;8024;48.708;9.394;2023-04-30T05:00:12;8.80;;;7.67;;
15848;SDS011;8024;48.708;9.394;2023-04-30T05:02:41;8.23;;;7.40;;
15848;SDS011;8024;48.708;9.394;2023-04-30T05:05:08;8.47;;;7.63;;
15848;SDS011;8024;48.708;9.394;2023-04-30T05:07:36;9.33;;;8.03;;
15848;SDS011;8024;48.708;9.394;2023-04-30T05:10:05;8.83;;;7.93;;
15848;SDS011;8024;48.708;9.394;2023-04-30T05:12:33;9.17;;;8.20;;
15848;SDS011;8024;48.708;9.394;2023-04-30T05:15:00;8.33;;;7.33;;
15848;SDS011;8024;48.708;9.394;2023-04-30T05:17:28;8.33;;;7.53;;
15848;SDS011;8024;48.708;9.394;2023-04-30T05:19:55;8.27;;;7.47;;
15848;SDS011;8024;48.708;9.394;2023-04-30T05:22:23;7.93;;;7.23;;
15848;SDS011;8024;48.708;9.394;2023-04-30T05:24:50;8.90;;;8.00;;
15848;SDS011;8024;48.708;9.394;2023-04-30T05:27:19;8.77;;;7.83;;
15848;SDS011;8024;48.708;9.394;2023-04-30T05:29:46;8.20;;;7.50;;
15848;SDS011;8024;48.708;9.394;2023-04-30T05:32:13;8.70;;;7.63;;
15848;SDS011;8024;48.708;9.394;2023-04-30T05:34:40;8.83;;;7.40;;
15848;SDS011;8024;48.708;9.394;2023-04-30T05:37:07;8.73;;;7.77;;
15848;SDS011;8024;48.708;9.394;2023-04-30T05:39:36;8.73;;;7.37;;
15848;SDS011;8024;48.708;9.394;2023-04-30T05:42:03;8.73;;;7.93;;
15848;SDS011;8024;48.708;9.394;2023-04-30T05:44:32;7.77;;;7.07;;
15848;SDS011;8024;48.708;9.394;2023-04-30T05:46:59;8.30;;;7.37;;
15848;SDS011;8024;48.708;9.394;2023-04-30T05:49:27;8.17;;;7.17;;
15848;SDS011;8024;48.708;9.394;2023-04-30T05:51:54;9.03;;;8.00;;
15848;SDS011;8024;48.708;9.394;2023-04-30T05:54:21;9.60;;;8.17;;
15848;SDS011;8024;48.708;9.394;2023-04-30T05:56:48;8.70;;;7.87;;
15848;SDS011;8024;48.708;9.394;2023-04-30T05:59:15;9.20;;;8.07;;
15848;SDS011;8024;48.708;9.394;2023-04-30T06:01:44;8.50;;;7.50;;
15848;SDS011;8024;48.708;9.394;2023-04-30T06:04:11;7.83;;;7.13;;
15848;SDS011;8024;48.708;9.394;2023-04-30T06:06:38;8.37;;;7.33;;
15848;SDS011;8024;48.708;9.394;2023-04-30T06:09:05;7.90;;;6.90;;
15848;SDS011;8024;48.708;9.394;2023-04-30T06:11:33;11.77;;;7.07;;
15848;SDS011;8024;48.708;9.394;2023-04-30T06:14:01;7.37;;;6.67;;
15848;SDS011;8024;48.708;9.394;2023-04-30T06:16:29;9.13;;;8.13;;
15848;SDS011;8024;48.708;9.394;2023-04-30T06:18:58;9.07;;;7.97;;
15848;SDS011;8024;48.708;9.394;2023-04-30T06:21:25;7.90;;;7.10;;
15848;SDS011;8024;48.708;9.394;2023-04-30T06:23:52;7.57;;;6.77;;
15848;SDS011;8024;48.708;9.394;2023-04-30T06:26:19;8.10;;;6.43;;
15848;SDS011;8024;48.708;9.394;2023-04-30T06:28:46;7.50;;;6.80;;
15848;SDS011;8024;48.708;9.394;2023-04-30T06:31:14;7.43;;;6.80;;
15848;SDS011;8024;48.708;9.394;2023-04-30T06:33:41;7.63;;;6.93;;
15848;SDS011;8024;48.708;9.394;2023-04-30T06:36:09;7.93;;;7.13;;
15848;SDS011;8024;48.708;9.394;2023-04-30T06:38:37;6.93;;;6.33;;
15848;SDS011;8024;48.708;9.394;2023-04-30T06:41:05;7.03;;;6.43;;
15848;SDS011;8024;48.708;9.394;2023-04-30T06:43:32;7.40;;;6.70;;
15848;SDS011;8024;48.708;9.394;2023-04-30T06:45:59;7.00;;;6.30;;
15848;SDS011;8024;48.708;9.394;2023-04-30T06:48:26;6.57;;;5.97;;
15848;SDS011;8024;48.708;9.394;2023-04-30T06:50:53;7.43;;;6.50;;
15848;SDS011;8024;48.708;9.394;2023-04-30T06:53:22;7.40;;;6.70;;
15848;SDS011;8024;48.708;9.394;2023-04-30T06:55:49;7.40;;;6.70;;
15848;SDS011;8024;48.708;9.394;2023-04-30T06:58:17;6.90;;;6.30;;
15848;SDS011;8024;48.708;9.394;2023-04-30T07:00:44;7.17;;;6.47;;
15848;SDS011;8024;48.708;9.394;2023-04-30T07:03:11;7.13;;;6.43;;
15848;SDS011;8024;48.708;9.394;2023-04-30T07:05:38;6.50;;;5.90;;
15848;SDS011;8024;48.708;9.394;2023-04-30T07:08:06;6.87;;;6.27;;
15848;SDS011;8024;48.708;9.394;2023-04-30T07:10:35;6.30;;;5.70;;
15848;SDS011;8024;48.708;9.394;2023-04-30T07:13:02;6.80;;;6.20;;
15848;SDS011;8024;48.708;9.394;2023-04-30T07:15:29;7.20;;;6.50;;
15848;SDS011;8024;48.708;9.394;2023-04-30T07:17:56;7.57;;;6.87;;
15848;SDS011;8024;48.708;9.394;2023-04-30T07:20:23;6.73;;;6.10;;
15848;SDS011;8024;48.708;9.394;2023-04-30T07:22:51;7.23;;;6.37;;
15848;SDS011;8024;48.708;9.394;2023-04-30T07:25:19;7.00;;;6.23;;
15848;SDS011;8024;48.708;9.394;2023-04-30T07:27:49;7.53;;;6.83;;
15848;SDS011;8024;48.708;9.394;2023-04-30T07:30:17;6.40;;;5.80;;
15848;SDS011;8024;48.708;9.394;2023-04-30T07:32:45;7.50;;;6.67;;
15848;SDS011;8024;48.708;9.394;2023-04-30T07:35:14;6.97;;;6.27;;
15848;SDS011;8024;48.708;9.394;2023-04-30T07:37:41;8.23;;;6.63;;
15848;SDS011;8024;48.708;9.394;2023-04-30T07:40:09;6.80;;;6.20;;
15848;SDS011;8024;48.708;9.394;2023-04-30T07:42:38;6.57;;;5.97;;
15848;SDS011;8024;48.708;9.394;2023-04-30T07:45:07;6.70;;;5.77;;
15848;SDS011;8024;48.708;9.394;2023-04-30T07:47:35;5.40;;;4.97;;
15848;SDS011;8024;48.708;9.394;2023-04-30T07:50:02;6.60;;;6.03;;
15848;SDS011;8024;48.708;9.394;2023-04-30T07:52:30;6.23;;;5.37;;
15848;SDS011;8024;48.708;9.394;2023-04-30T07:54:57;6.60;;;6.10;;
15848;SDS011;8024;48.708;9.394;2023-04-30T07:57:24;7.00;;;6.13;;
15848;SDS011;8024;48.708;9.394;2023-04-30T07:59:51;6.03;;;5.53;;
15848;SDS011;8024;48.708;9.394;2023-04-30T08:02:20;6.03;;;5.43;;
15848;SDS011;8024;48.708;9.394;2023-04-30T08:04:47;6.90;;;6.20;;
15848;SDS011;8024;48.708;9.394;2023-04-30T08:07:14;5.80;;;5.30;;
15848;SDS011;8024;48.708;9.394;2023-04-30T08:09:41;5.73;;;4.97;;
15848;SDS011;8024;48.708;9.394;2023-04-30T08:12:08;5.57;;;5.13;;
15848;SDS011;8024;48.708;9.394;2023-04-30T08:14:35;5.03;;;4.63;;
15848;SDS011;8024;48.708;9.394;2023-04-30T08:17:03;5.50;;;4.53;;
15848;SDS011;8024;48.708;9.394;2023-04-30T08:19:31;5.10;;;4.60;;
15848;SDS011;8024;48.708;9.394;2023-04-30T08:21:58;5.50;;;5.00;;
15848;SDS011;8024;48.708;9.394;2023-04-30T08:24:26;4.67;;;4.27;;
15848;SDS011;8024;48.708;9.394;2023-04-30T08:26:53;4.93;;;4.53;;
15848;SDS011;8024;48.708;9.394;2023-04-30T08:29:20;5.70;;;4.90;;
15848;SDS011;8024;48.708;9.394;2023-04-30T08:31:47;4.83;;;4.43;;
15848;SDS011;8024;48.708;9.394;2023-04-30T08:34:14;4.37;;;4.03;;
15848;SDS011;8024;48.708;9.394;2023-04-30T08:36:43;4.93;;;4.53;;
15848;SDS011;8024;48.708;9.394;2023-04-30T08:39:10;4.13;;;3.83;;
15848;SDS011;8024;48.708;9.394;2023-04-30T08:41:37;3.60;;;3.30;;
15848;SDS011;8024;48.708;9.394;2023-04-30T08:44:07;4.10;;;3.80;;
15848;SDS011;8024;48.708;9.394;2023-04-30T08:46:37;4.17;;;3.80;;
15848;SDS011;8024;48.708;9.394;2023-04-30T08:49:05;4.63;;;3.83;;
15848;SDS011;8024;48.708;9.394;2023-04-30T08:51:33;4.87;;;4.47;;
15848;SDS011;8024;48.708;9.394;2023-04-30T08:54:02;4.40;;;4.10;;
15848;SDS011;8024;48.708;9.394;2023-04-30T08:56:30;3.70;;;3.40;;
15848;SDS011;8024;48.708;9.394;2023-04-30T08:58:59;3.73;;;3.53;;
15848;SDS011;8024;48.708;9.394;2023-04-30T09:01:26;3.80;;;3.50;;
15848;SDS011;8024;48.708;9.394;2023-04-30T09:03:54;3.60;;;3.30;;
15848;SDS011;8024;48.708;9.394;2023-04-30T09:06:22;3.73;;;3.40;;
15848;SDS011;8024;48.708;9.394;2023-04-30T09:08:49;3.70;;;3.40;;
15848;SDS011;8024;48.708;9.394;2023-04-30T09:11:23;4.50;;;4.10;;
15848;SDS011;8024;48.708;9.394;2023-04-30T09:13:52;3.70;;;3.40;;
15848;SDS011;8024;48.708;9.394;2023-04-30T09:16:21;4.17;;;3.77;;
15848;SDS011;8024;48.708;9.394;2023-04-30T09:18:49;4.63;;;3.77;;
15848;SDS011;8024;48.708;9.394;2023-04-30T09:21:27;3.63;;;3.40;;
15848;SDS011;8024;48.708;9.394;2023-04-30T09:23:58;4.13;;;3.30;;
15848;SDS011;8024;48.708;9.394;2023-04-30T09:26:29;3.70;;;3.40;;
15848;SDS011;8024;48.708;9.394;2023-04-30T09:28:57;5.20;;;4.10;;
15848;SDS011;8024;48.708;9.394;2023-04-30T09:31:26;3.40;;;2.97;;
15848;SDS011;8024;48.708;9.394;2023-04-30T09:33:53;2.70;;;2.50;;
15848;SDS011;8024;48.708;9.394;2023-04-30T09:36:21;2.87;;;2.63;;
15848;SDS011;8024;48.708;9.394;2023-04-30T09:38:49;2.93;;;2.73;;
15848;SDS011;8024;48.708;9.394;2023-04-30T09:41:23;2.87;;;2.67;;
15848;SDS011;8024;48.708;9.394;2023-04-30T09:43:52;4.23;;;3.83;;
15848;SDS011;8024;48.708;9.394;2023-04-30T09:46:20;6.07;;;5.57;;
15848;SDS011;8024;48.708;9.394;2023-04-30T09:48:55;3.50;;;3.20;;
15848;SDS011;8024;48.708;9.394;2023-04-30T09:51:23;5.40;;;4.50;;
15848;SDS011;8024;48.708;9.394;2023-04-30T09:53:51;3.17;;;2.20;;
15848;SDS011;8024;48.708;9.394;2023-04-30T09:56:20;3.50;;;2.90;;
15848;SDS011;8024;48.708;9.394;2023-04-30T09:58:49;2.63;;;2.43;;
15848;SDS011;8024;48.708;9.394;2023-04-30T10:01:19;2.33;;;2.20;;
15848;SDS011;8024;48.708;9.394;2023-04-30T10:03:47;3.03;;;2.73;;
15848;SDS011;8024;48.708;9.394;2023-04-30T10:06:15;2.60;;;2.40;;
15848;SDS011;8024;48.708;9.394;2023-04-30T10:08:45;2.73;;;2.53;;
15848;SDS011;8024;48.708;9.394;2023-04-30T10:11:14;2.13;;;2.03;;
15848;SDS011;8024;48.708;9.394;2023-04-30T10:13:46;2.30;;;2.10;;
15848;SDS011;8024;48.708;9.394;2023-04-30T10:16:22;2.60;;;2.40;;
15848;SDS011;8024;48.708;9.394;2023-04-30T10:18:54;2.27;;;2.07;;
15848;SDS011;8024;48.708;9.394;2023-04-30T10:21:25;2.27;;;2.17;;
15848;SDS011;8024;48.708;9.394;2023-04-30T10:23:53;2.27;;;2.17;;
15848;SDS011;8024;48.708;9.394;2023-04-30T10:26:21;2.23;;;2.13;;
15848;SDS011;8024;48.708;9.394;2023-04-30T10:28:49;2.67;;;2.47;;
15848;SDS011;8024;48.708;9.394;2023-04-30T10:31:19;1.60;;;1.50;;
15848;SDS011;8024;48.708;9.394;2023-04-30T10:33:49;1.80;;;1.70;;
15848;SDS011;8024;48.708;9.394;2023-04-30T10:36:25;2.00;;;1.90;;
15848;SDS011;8024;48.708;9.394;2023-04-30T10:38:58;1.83;;;1.73;;
15848;SDS011;8024;48.708;9.394;2023-04-30T10:41:26;1.53;;;1.43;;
15848;SDS011;8024;48.708;9.394;2023-04-30T10:43:55;2.40;;;2.20;;
15848;SDS011;8024;48.708;9.394;2023-04-30T10:46:25;3.47;;;2.53;;
15848;SDS011;8024;48.708;9.394;2023-04-30T10:48:52;2.13;;;2.03;;
15848;SDS011;8024;48.708;9.394;2023-04-30T10:51:20;2.03;;;1.93;;
15848;SDS011;8024;48.708;9.394;2023-04-30T10:53:48;2.10;;;2.00;;
15848;SDS011;8024;48.708;9.394;2023-04-30T10:56:29;2.60;;;2.40;;
15848;SDS011;8024;48.708;9.394;2023-04-30T10:58:58;2.17;;;2.07;;
15848;SDS011;8024;48.708;9.394;2023-04-30T11:01:27;2.67;;;2.00;;
15848;SDS011;8024;48.708;9.394;2023-04-30T11:04:05;2.10;;;2.00;;
15848;SDS011;8024;48.708;9.394;2023-04-30T11:06:47;2.60;;;2.40;;
15848;SDS011;8024;48.708;9.394;2023-04-30T11:09:20;2.40;;;2.20;;
15848;SDS011;8024;48.708;9.394;2023-04-30T11:12:01;2.60;;;2.13;;
15848;SDS011;8024;48.708;9.394;2023-04-30T11:14:30;2.37;;;2.10;;
15848;SDS011;8024;48.708;9.394;2023-04-30T11:16:59;2.60;;;2.23;;
15848;SDS011;8024;48.708;9.394;2023-04-30T11:19:27;2.90;;;2.70;;
15848;SDS011;8024;48.708;9.394;2023-04-30T11:24:59;1.80;;;1.70;;
15848;SDS011;8024;48.708;9.394;2023-04-30T11:27:30;2.13;;;1.90;;
15848;SDS011;8024;48.708;9.394;2023-04-30T11:29:58;2.13;;;2.03;;
15848;SDS011;8024;48.708;9.394;2023-04-30T11:32:32;2.27;;;2.13;;
15848;SDS011;8024;48.708;9.394;2023-04-30T11:35:00;2.03;;;1.83;;
15848;SDS011;8024;48.708;9.394;2023-04-30T11:37:29;2.03;;;1.93;;
15848;SDS011;8024;48.708;9.394;2023-04-30T11:39:59;1.80;;;1.70;;
15848;SDS011;8024;48.708;9.394;2023-04-30T11:42:28;2.60;;;1.77;;
15848;SDS011;8024;48.708;9.394;2023-04-30T11:45:01;2.60;;;2.40;;
15848;SDS011;8024;48.708;9.394;2023-04-30T11:47:40;4.93;;;1.93;;
15848;SDS011;8024;48.708;9.394;2023-04-30T11:50:08;2.00;;;1.80;;
15848;SDS011;8024;48.708;9.394;2023-04-30T11:52:37;2.07;;;1.87;;
15848;SDS011;8024;48.708;9.394;2023-04-30T11:55:05;2.50;;;2.23;;
15848;SDS011;8024;48.708;9.394;2023-04-30T11:57:39;2.00;;;1.90;;
15848;SDS011;8024;48.708;9.394;2023-04-30T12:00:11;1.90;;;1.43;;
15848;SDS011;8024;48.708;9.394;2023-04-30T12:02:41;1.90;;;1.80;;
15848;SDS011;8024;48.708;9.394;2023-04-30T12:05:13;2.00;;;1.90;;
15848;SDS011;8024;48.708;9.394;2023-04-30T12:07:44;2.13;;;2.03;;
15848;SDS011;8024;48.708;9.394;2023-04-30T12:10:13;2.10;;;2.00;;
15848;SDS011;8024;48.708;9.394;2023-04-30T12:12:41;1.93;;;1.73;;
15848;SDS011;8024;48.708;9.394;2023-04-30T12:15:10;2.00;;;1.90;;
15848;SDS011;8024;48.708;9.394;2023-04-30T12:17:38;2.50;;;2.30;;
15848;SDS011;8024;48.708;9.394;2023-04-30T12:20:08;7.83;;;2.30;;
15848;SDS011;8024;48.708;9.394;2023-04-30T12:22:36;2.80;;;2.60;;
15848;SDS011;8024;48.708;9.394;2023-04-30T12:25:06;6.00;;;4.60;;
15848;SDS011;8024;48.708;9.394;2023-04-30T12:27:37;2.20;;;2.10;;
15848;SDS011;8024;48.708;9.394;2023-04-30T12:30:05;1.97;;;1.87;;
15848;SDS011;8024;48.708;9.394;2023-04-30T12:32:37;3.10;;;2.90;;
15848;SDS011;8024;48.708;9.394;2023-04-30T12:35:06;3.20;;;1.93;;
15848;SDS011;8024;48.708;9.394;2023-04-30T12:37:34;2.47;;;2.00;;
15848;SDS011;8024;48.708;9.394;2023-04-30T12:40:07;2.00;;;1.90;;
15848;SDS011;8024;48.708;9.394;2023-04-30T12:42:35;2.00;;;1.90;;
15848;SDS011;8024;48.708;9.394;2023-04-30T12:45:02;2.53;;;2.33;;
15848;SDS011;8024;48.708;9.394;2023-04-30T12:47:30;2.27;;;2.10;;
15848;SDS011;8024;48.708;9.394;2023-04-30T12:49:57;1.97;;;1.80;;
15848;SDS011;8024;48.708;9.394;2023-04-30T12:52:25;2.53;;;2.40;;
15848;SDS011;8024;48.708;9.394;2023-04-30T12:54:53;2.30;;;2.20;;
15848;SDS011;8024;48.708;9.394;2023-04-30T12:57:20;3.20;;;3.00;;
15848;SDS011;8024;48.708;9.394;2023-04-30T12:59:57;3.13;;;2.83;;
15848;SDS011;8024;48.708;9.394;2023-04-30T13:02:26;2.50;;;2.03;;
15848;SDS011;8024;48.708;9.394;2023-04-30T13:04:55;2.63;;;2.40;;
15848;SDS011;8024;48.708;9.394;2023-04-30T13:07:23;2.90;;;2.70;;
15848;SDS011;8024;48.708;9.394;2023-04-30T13:09:52;2.77;;;2.10;;
15848;SDS011;8024;48.708;9.394;2023-04-30T13:12:19;1.87;;;1.77;;
15848;SDS011;8024;48.708;9.394;2023-04-30T13:14:46;1.77;;;1.77;;
15848;SDS011;8024;48.708;9.394;2023-04-30T13:17:13;2.20;;;2.10;;
15848;SDS011;8024;48.708;9.394;2023-04-30T13:19:40;3.33;;;2.10;;
15848;SDS011;8024;48.708;9.394;2023-04-30T13:22:07;2.07;;;1.93;;
15848;SDS011;8024;48.708;9.394;2023-04-30T13:24:36;1.87;;;1.77;;
15848;SDS011;8024;48.708;9.394;2023-04-30T13:27:03;3.90;;;2.43;;
15848;SDS011;8024;48.708;9.394;2023-04-30T13:29:30;1.63;;;1.50;;
15848;SDS011;8024;48.708;9.394;2023-04-30T13:31:57;1.87;;;1.77;;
15848;SDS011;8024;48.708;9.394;2023-04-30T13:34:25;2.00;;;1.80;;
15848;SDS011;8024;48.708;9.394;2023-04-30T13:36:52;2.27;;;2.07;;
15848;SDS011;8024;48.708;9.394;2023-04-30T13:39:19;3.10;;;1.60;;
15848;SDS011;8024;48.708;9.394;2023-04-30T13:41:48;1.80;;;1.70;;
15848;SDS011;8024;48.708;9.394;2023-04-30T13:44:15;2.10;;;1.90;;
15848;SDS011;8024;48.708;9.394;2023-04-30T13:46:42;2.63;;;2.03;;
15848;SDS011;8024;48.708;9.394;2023-04-30T13:49:10;2.57;;;2.37;;
15848;SDS011;8024;48.708;9.394;2023-04-30T13:51:37;1.97;;;1.87;;
15848;SDS011;8024;48.708;9.394;2023-04-30T13:54:04;2.03;;;1.83;;
15848;SDS011;8024;48.708;9.394;2023-04-30T13:56:31;2.53;;;2.33;;
15848;SDS011;8024;48.708;9.394;2023-04-30T13:59:00;2.07;;;1.97;;
15848;SDS011;8024;48.708;9.394;2023-04-30T14:01:27;1.97;;;1.77;;
15848;SDS011;8024;48.708;9.394;2023-04-30T14:03:56;1.87;;;1.70;;
15848;SDS011;8024;48.708;9.394;2023-04-30T14:06:23;1.80;;;1.70;;
15848;SDS011;8024;48.708;9.394;2023-04-30T14:08:50;2.10;;;2.00;;
15848;SDS011;8024;48.708;9.394;2023-04-30T14:11:17;1.80;;;1.57;;
15848;SDS011;8024;48.708;9.394;2023-04-30T14:13:45;1.93;;;1.70;;
15848;SDS011;8024;48.708;9.394;2023-04-30T14:16:14;2.00;;;1.80;;
15848;SDS011;8024;48.708;9.394;2023-04-30T14:18:43;1.80;;;1.57;;
15848;SDS011;8024;48.708;9.394;2023-04-30T14:21:10;2.57;;;1.90;;
15848;SDS011;8024;48.708;9.394;2023-04-30T14:23:37;1.87;;;1.73;;
15848;SDS011;8024;48.708;9.394;2023-04-30T14:26:05;2.87;;;1.83;;
15848;SDS011;8024;48.708;9.394;2023-04-30T14:28:32;1.93;;;1.83;;
15848;SDS011;8024;48.708;9.394;2023-04-30T14:30:59;1.77;;;1.67;;
15848;SDS011;8024;48.708;9.394;2023-04-30T14:33:29;2.17;;;1.67;;
15848;SDS011;8024;48.708;9.394;2023-04-30T14:35:56;1.97;;;1.87;;
15848;SDS011;8024;48.708;9.394;2023-04-30T14:38:25;2.03;;;1.83;;
15848;SDS011;8024;48.708;9.394;2023-04-30T14:40:52;2.07;;;1.57;;
15848;SDS011;8024;48.708;9.394;2023-04-30T14:43:19;2.67;;;1.50;;
15848;SDS011;8024;48.708;9.394;2023-04-30T14:45:47;2.27;;;2.00;;
15848;SDS011;8024;48.708;9.394;2023-04-30T14:48:14;2.70;;;1.80;;
15848;SDS011;8024;48.708;9.394;2023-04-30T14:50:44;2.00;;;1.90;;
15848;SDS011;8024;48.708;9.394;2023-04-30T14:53:11;2.00;;;1.90;;
15848;SDS011;8024;48.708;9.394;2023-04-30T14:55:39;1.73;;;1.63;;
15848;SDS011;8024;48.708;9.394;2023-04-30T14:58:06;1.97;;;1.83;;
15848;SDS011;8024;48.708;9.394;2023-04-30T15:00:33;1.90;;;1.73;;
15848;SDS011;8024;48.708;9.394;2023-04-30T15:03:01;1.73;;;1.63;;
15848;SDS011;8024;48.708;9.394;2023-04-30T15:05:28;2.03;;;1.80;;
15848;SDS011;8024;48.708;9.394;2023-04-30T15:07:57;1.93;;;1.70;;
15848;SDS011;8024;48.708;9.394;2023-04-30T15:10:25;1.70;;;1.60;;
15848;SDS011;8024;48.708;9.394;2023-04-30T15:12:52;2.40;;;1.73;;